Central Oregon RPC :: MT. HOME B

liberation: 2021-10-16  08:00     latitude: 43.142592     longitude: -115.663059 23 birds
# LOFT PRING MILES ARRIVAL SPEED ToWin
1 RUETER FAMILY LOFT AU21-CORP-850 286.98 2021-10-16 12:42:01.443 1790.931 00:00:00
2 RUETER FAMILY LOFT AU21-CORP-884 286.98 2021-10-16 12:42:06.618 1790.383 00:00:05
3 RUETER FAMILY LOFT AU21-CORP-860 286.98 2021-10-16 13:07:28.134 1642.721 00:25:27
4 RUETER FAMILY LOFT AU21-CORP-809 286.98 2021-10-16 13:07:32.418 1642.339 00:25:31
5 RUETER FAMILY LOFT AU21-CORP-822 286.98 2021-10-16 13:18:50.807 1584.101 00:36:49
6 RUETER FAMILY LOFT AU21-CORP-819 286.98 2021-10-16 13:19:09.549 1582.551 00:37:08
7 RUETER FAMILY LOFT AU21-CORP-807 286.98 2021-10-16 13:39:10.321 1489.172 00:57:09
8 RUETER FAMILY LOFT AU21-CORP-817 286.98 2021-10-16 13:42:06.019 1476.425 01:00:05
9 RUETER FAMILY LOFT AU21-CORP-1214 286.98 2021-10-16 13:42:21.779 1475.293 01:00:20
10 RUETER FAMILY LOFT AU21-CORP-812 286.98 2021-10-16 13:59:42.516 1404.152 01:17:41
11 RUETER FAMILY LOFT AU21-CORP-985 286.98 2021-10-16 14:16:55.829 1339.997 01:34:54
12 RUETER FAMILY LOFT AU21-CORP-888 286.98 2021-10-16 14:17:33.633 1337.760 01:35:32
13 RUETER FAMILY LOFT AU21-CORP-868 286.98 2021-10-16 14:17:39.957 1337.387 01:35:39
14 RUETER FAMILY LOFT AU21-CORP-920 286.98 2021-10-16 14:17:45.807 1337.042 01:35:44
15 RUETER FAMILY LOFT AU21-CORP-942 286.98 2021-10-16 14:23:27.762 1317.170 01:41:26
16 RUETER FAMILY LOFT AU21-CORP-881 286.98 2021-10-16 14:23:35.239 1316.742 01:41:34
17 RUETER FAMILY LOFT AU21-CORP-861 286.98 2021-10-16 14:30:37.142 1293.039 01:48:36
18 RUETER FAMILY LOFT AU21-CORP-986 286.98 2021-10-16 14:38:52.604 1266.270 01:56:51
19 RUETER FAMILY LOFT AU21-CORP-940 286.98 2021-10-16 14:49:37.193 1233.059 02:07:36
20 RUETER FAMILY LOFT AU21-CORP-949 286.98 2021-10-16 17:43:23.134 865.783 05:01:22
RUETER FAMILY LOFT AU21-CORP-1204 0 0000-00-00 00:00:00.000 0.000 00:00:00
RUETER FAMILY LOFT AU21-CORP-887 0 0000-00-00 00:00:00.000 0.000 00:00:00
RUETER FAMILY LOFT AU21-CORP-987 0 0000-00-00 00:00:00.000 0.000 00:00:00